Domov               UVHVVR             MKGP            O straneh              
ZDRAVSTVENO VARSTVO RASTLIN
  MREŽA AGROMET. POSTAJ
 ► PROGNOSTIČNA OBVESTILA
AGROMETEOROLOŠKI PODATKI -
ARSO
OBVLADOVANJE TVEGANJ ZARADI
NEUGODNIH VREMENSKIH RAZMER
  ► NARAVNE NESREČE
  ► SUŠA/MOČA
  ► NAMAKANJE
  ► ŽLED (gozdarstvo)
KARTOGRAFSKI PRIKAZI
SPLETNE POVEZAVE
PROJEKTI IN PUBLIKACIJE

AGROMETEOROLOŠKA MREŽA: VREMENSKE POSTAJE IN FENOLOŠKA OPAZOVANJA

Pregled podatkov za lokacijo Gabernik-Rogaška, meteorološka postaja 37800

Pregled senzorjev na lokaciji

ID Ime Zadnja
vrednost
Datum in čas
zadnje
spremembe
(Lokalni čas)
Tip
senzorja
1828 Omočenost lista (U) 0 U 19.2.2020 00:30 A730WET
4946 Padavine (mm) 0 mm 19.2.2020 00:30 Generic 0.2 mm
1827 Relativna vlaga 2 m (% RH) 73.21 % RH 19.2.2020 00:30 50YA
1826 Temperatura 2 m (°C) 6.69 °C 19.2.2020 00:30 50YA

Pregled podatkov zadnjih 24 ur

Zap.
št.
Datum in čas
(Centralno
evropski čas)
Gabernik-Rogaška
Omočenost
lista
Padavine Relativna
vlaga
2
m
Temperatura
2
m
1 19.2.2020 01:00
2 19.2.2020 00:30 0 0 73.2 6.7
3 19.2.2020 00:00 0 0 74.1 6.8
4 18.2.2020 23:30 0 0 76.2 6.9
5 18.2.2020 23:00 0 0 82.5 5.8
6 18.2.2020 22:30 0 0 79 6.3
7 18.2.2020 22:00 0 0 76.4 6.6
8 18.2.2020 21:30 0 0 76.8 6.9
9 18.2.2020 21:00 0 0 76.6 7
10 18.2.2020 20:30 0 0 71.4 7.5
11 18.2.2020 20:00 0 0 73.7 7.5
12 18.2.2020 19:30 0 0 78.8 7.7
13 18.2.2020 19:00 5 0 85.9 7.5
14 18.2.2020 18:30 5 0 86.1 7.7
15 18.2.2020 18:00 3 0 85.2 7.8
16 18.2.2020 17:30 1 0 84.2 8.1
17 18.2.2020 17:00 0 0 82.2 8.7
18 18.2.2020 16:30 0 0 77.8 9.1
19 18.2.2020 16:00 0 0 74.6 9.3
20 18.2.2020 15:30 0 0 76.9 9.6
21 18.2.2020 15:00 0 0 77.2 10
22 18.2.2020 14:30 0 0 75.2 10.4
23 18.2.2020 14:00 0 0 74.8 10.3
24 18.2.2020 13:30 0 0 76.2 10
25 18.2.2020 13:00 0 0 78.5 9.9
26 18.2.2020 12:30 0 0 80.3 9.7
27 18.2.2020 12:00 0 0 84.2 9.2
28 18.2.2020 11:30 0 0 87.4 8.8
29 18.2.2020 11:00 0 0 88.6 8.6
30 18.2.2020 10:30 10 0 90 8.5
31 18.2.2020 10:00 10 0 89.9 8.3
32 18.2.2020 09:30 10 0 87.8 8.3
33 18.2.2020 09:00 10 0 87.5 8.2
34 18.2.2020 08:30 10 0 87.5 8.1
35 18.2.2020 08:00 10 0 87.2 8
36 18.2.2020 07:30 10 0 84.6 8.3
37 18.2.2020 07:00 8 0 80.7 8.8
38 18.2.2020 06:30 0 0 78.9 9
39 18.2.2020 06:00 0 0 79.6 9
40 18.2.2020 05:30 0 0 78 9.3
41 18.2.2020 05:00 0 0 79.3 9.2
42 18.2.2020 04:30 0 0 79.4 9.2
43 18.2.2020 04:00 0 0 78.3 9.4
44 18.2.2020 03:30 0 0 77.8 9.5
45 18.2.2020 03:00 0 0 78 9.5
46 18.2.2020 02:30 0 0 77.7 9.5
47 18.2.2020 02:00 0 0 77 9.5
48 18.2.2020 01:30 0 0 75.7 9.6
© 2011 Ministrstvo za kmetijstvo, gozdarstvo in prehrano. Vse pravice pridržane.